Time;durP1;ratioP1;P1;durP2;ratioP2;P2;SDS_P1;SDS_P2;PMS_P1;PMS_P2;Temp;Humidity;BMP_temperature;BMP_pressure;BME280_temperature;BME280_humidity;BME280_pressure;Samples;Min_cycle;Max_cycle;Signal;HPM_P1;HPM_P2
2022/09/13 00:01:24;;;;;;;;;8.33;8.33;;;;;;;;5054405;28;45435;-74
2022/09/13 00:03:50;;;;;;;;;13.00;11.00;;;;;;;;5060332;28;45426;-74
2022/09/13 00:06:16;;;;;;;;;10.67;8.67;;;;;;;;5057714;28;45821;-74
2022/09/13 00:08:42;;;;;;;;;7.67;7.67;;;;;;;;5060748;28;45461;-74
2022/09/13 00:11:13;;;;;;;;;9.00;8.00;;;;;;;;5059649;28;45396;-74
2022/09/13 00:13:38;;;;;;;;;8.50;7.50;;;;;;;;5046386;28;46283;-74
2022/09/13 00:16:04;;;;;;;;;7.33;7.33;;;;;;;;5043046;28;44707;-74
2022/09/13 00:18:29;;;;;;;;;9.00;7.00;;;;;;;;5054766;28;45299;-74
2022/09/13 00:21:02;;;;;;;;;7.00;7.00;;;;;;;;5045133;28;45318;-74
2022/09/13 00:23:28;;;;;;;;;6.00;6.00;;;;;;;;5054736;28;46147;-74
2022/09/13 00:26:01;;;;;;;;;7.67;6.67;;;;;;;;5046659;28;45343;-74
2022/09/13 00:28:26;;;;;;;;;12.00;7.00;;;;;;;;5057051;28;45367;-74
2022/09/13 00:30:52;;;;;;;;;5.67;5.67;;;;;;;;5087827;27;46928;-74
2022/09/13 00:33:17;;;;;;;;;8.67;7.67;;;;;;;;5070497;28;47640;-72
2022/09/13 00:35:42;;;;;;;;;9.00;7.67;;;;;;;;5054993;28;45269;-74
2022/09/13 00:38:07;;;;;;;;;7.33;7.00;;;;;;;;5052188;28;45401;-74
2022/09/13 00:40:35;;;;;;;;;7.33;7.00;;;;;;;;5090955;27;45701;-74
2022/09/13 00:43:01;;;;;;;;;10.33;8.00;;;;;;;;5054119;28;45528;-74
2022/09/13 00:45:26;;;;;;;;;7.00;6.00;;;;;;;;5048695;28;45331;-74
2022/09/13 00:48:00;;;;;;;;;9.00;7.00;;;;;;;;5056246;28;45393;-74
2022/09/13 00:50:32;;;;;;;;;7.33;6.00;;;;;;;;5057620;28;45288;-74
2022/09/13 00:53:06;;;;;;;;;9.67;6.00;;;;;;;;5059096;28;46362;-74
2022/09/13 00:55:50;;;;;;;;;6.00;6.00;;;;;;;;5057217;28;45368;-74
2022/09/13 00:58:17;;;;;;;;;8.33;6.00;;;;;;;;5050096;28;45250;-74
2022/09/13 01:00:43;;;;;;;;;6.33;6.00;;;;;;;;5053784;28;45414;-71
2022/09/13 01:03:10;;;;;;;;;7.00;7.00;;;;;;;;5055032;28;45622;-71
2022/09/13 01:05:38;;;;;;;;;7.00;7.00;;;;;;;;5055946;28;45347;-71
2022/09/13 01:08:21;;;;;;;;;6.33;5.33;;;;;;;;5048683;28;45281;-71
2022/09/13 01:10:48;;;;;;;;;4.00;4.00;;;;;;;;5050962;28;46376;-74
2022/09/13 01:13:24;;;;;;;;;5.00;5.00;;;;;;;;5050924;28;45157;-74
2022/09/13 01:15:50;;;;;;;;;8.00;8.00;;;;;;;;5060409;28;45299;-74
2022/09/13 01:18:15;;;;;;;;;10.00;7.00;;;;;;;;5052483;28;45477;-74
2022/09/13 01:20:59;;;;;;;;;6.67;5.67;;;;;;;;5058835;28;45764;-74
2022/09/13 01:23:40;;;;;;;;;7.33;6.33;;;;;;;;5055474;28;47145;-74
2022/09/13 01:26:20;;;;;;;;;7.67;6.00;;;;;;;;5059025;28;45450;-74
2022/09/13 01:29:14;;;;;;;;;4.67;4.67;;;;;;;;5053098;28;45398;-74
2022/09/13 01:31:45;;;;;;;;;4.33;4.33;;;;;;;;5053847;28;45664;-74
2022/09/13 01:34:29;;;;;;;;;5.33;5.00;;;;;;;;5053351;28;45565;-74
2022/09/13 01:37:13;;;;;;;;;5.67;5.67;;;;;;;;5053837;28;45430;-74
2022/09/13 01:39:38;;;;;;;;;3.00;3.00;;;;;;;;5054465;28;45408;-74
2022/09/13 01:42:21;;;;;;;;;5.67;5.67;;;;;;;;5060994;28;45726;-74
2022/09/13 01:44:54;;;;;;;;;5.00;5.00;;;;;;;;5048670;28;45459;-74
2022/09/13 01:47:31;;;;;;;;;3.33;3.33;;;;;;;;5047972;28;45217;-74
2022/09/13 01:49:56;;;;;;;;;4.67;4.67;;;;;;;;5049401;28;45459;-74
2022/09/13 01:52:22;;;;;;;;;5.00;5.00;;;;;;;;5051794;28;45449;-74
2022/09/13 01:54:52;;;;;;;;;7.00;5.00;;;;;;;;5060638;28;45339;-74
2022/09/13 01:57:26;;;;;;;;;5.00;3.67;;;;;;;;5053398;28;45437;-72
2022/09/13 01:59:54;;;;;;;;;7.33;4.33;;;;;;;;5047873;28;44772;-72
2022/09/13 02:02:30;;;;;;;;;4.00;4.00;;;;;;;;5057218;28;45279;-74
2022/09/13 02:05:01;;;;;;;;;5.00;5.00;;;;;;;;5058456;28;45470;-74
2022/09/13 02:07:36;;;;;;;;;3.67;3.67;;;;;;;;5053776;28;45341;-72
2022/09/13 02:10:05;;;;;;;;;4.00;4.00;;;;;;;;5058960;28;45309;-74
2022/09/13 02:12:33;;;;;;;;;3.00;3.00;;;;;;;;5079275;27;45537;-74
2022/09/13 02:15:06;;;;;;;;;5.00;5.00;;;;;;;;5053727;28;47280;-74
2022/09/13 02:17:35;;;;;;;;;3.00;3.00;;;;;;;;5046244;28;45216;-72
2022/09/13 02:20:04;;;;;;;;;5.00;3.67;;;;;;;;5055276;28;45366;-73
2022/09/13 02:22:31;;;;;;;;;4.67;3.67;;;;;;;;5060093;28;45601;-72
2022/09/13 02:24:59;;;;;;;;;5.33;4.00;;;;;;;;5051207;28;45403;-73
2022/09/13 02:27:26;;;;;;;;;2.67;2.67;;;;;;;;5052310;28;45504;-72
2022/09/13 02:29:54;;;;;;;;;5.00;4.00;;;;;;;;5055194;28;45403;-72
2022/09/13 02:32:25;;;;;;;;;4.67;3.33;;;;;;;;5047330;28;45418;-72
2022/09/13 02:34:56;;;;;;;;;3.00;3.00;;;;;;;;5056173;28;46229;-72
2022/09/13 02:37:24;;;;;;;;;4.00;3.67;;;;;;;;5065556;28;45458;-73
2022/09/13 02:39:52;;;;;;;;;4.00;4.00;;;;;;;;5059113;28;45304;-72
2022/09/13 02:42:25;;;;;;;;;3.67;3.00;;;;;;;;5049423;28;45623;-72
2022/09/13 02:44:52;;;;;;;;;3.00;3.00;;;;;;;;5046614;28;45501;-73
2022/09/13 02:47:35;;;;;;;;;3.00;3.00;;;;;;;;5045902;28;45447;-72
2022/09/13 02:50:09;;;;;;;;;3.00;3.00;;;;;;;;5047719;28;45264;-72
2022/09/13 02:52:38;;;;;;;;;2.67;2.67;;;;;;;;5086212;27;45447;-72
2022/09/13 02:55:15;;;;;;;;;3.33;2.67;;;;;;;;5049051;28;45266;-72
2022/09/13 02:57:46;;;;;;;;;7.00;3.00;;;;;;;;5046151;28;45316;-72
2022/09/13 03:00:12;;;;;;;;;3.00;3.00;;;;;;;;5054115;28;45306;-73
2022/09/13 03:02:39;;;;;;;;;3.33;3.33;;;;;;;;5051431;28;45352;-73
2022/09/13 03:05:05;;;;;;;;;3.33;3.33;;;;;;;;5048489;28;46351;-73
2022/09/13 03:07:30;;;;;;;;;3.33;3.33;;;;;;;;5067331;28;45608;-72
2022/09/13 03:10:01;;;;;;;;;3.00;3.00;;;;;;;;5053933;28;45240;-73
2022/09/13 03:12:40;;;;;;;;;4.67;2.67;;;;;;;;5068361;28;47010;-72
2022/09/13 03:15:24;;;;;;;;;2.67;2.67;;;;;;;;5052842;28;46246;-72
2022/09/13 03:18:13;;;;;;;;;3.00;3.00;;;;;;;;5050355;28;45312;-72
2022/09/13 03:20:57;;;;;;;;;5.67;3.67;;;;;;;;5047822;28;45311;-73
2022/09/13 03:23:41;;;;;;;;;4.00;4.00;;;;;;;;5049861;28;45561;-73
2022/09/13 03:26:35;;;;;;;;;4.33;4.00;;;;;;;;5057690;28;45534;-73
2022/09/13 03:29:09;;;;;;;;;2.67;2.67;;;;;;;;5051847;28;45380;-72
2022/09/13 03:31:40;;;;;;;;;3.00;3.00;;;;;;;;5049602;28;45461;-73
2022/09/13 03:34:05;;;;;;;;;4.67;4.67;;;;;;;;5058533;28;45551;-73
2022/09/13 03:36:35;;;;;;;;;3.67;3.67;;;;;;;;5051078;28;46221;-73
2022/09/13 03:39:07;;;;;;;;;2.67;2.67;;;;;;;;5049773;28;45525;-72
2022/09/13 03:41:35;;;;;;;;;4.67;3.67;;;;;;;;5054480;28;44941;-72
2022/09/13 03:44:06;;;;;;;;;4.00;3.33;;;;;;;;5053649;28;45467;-72
2022/09/13 03:46:34;;;;;;;;;4.00;3.00;;;;;;;;5056646;28;46174;-72
2022/09/13 03:49:05;;;;;;;;;4.67;4.67;;;;;;;;5053291;28;45315;-72
2022/09/13 03:51:31;;;;;;;;;4.00;3.00;;;;;;;;5058243;28;46130;-72
2022/09/13 03:53:59;;;;;;;;;5.33;4.00;;;;;;;;5062014;28;45548;-72
2022/09/13 03:56:24;;;;;;;;;3.00;1.67;;;;;;;;5055849;28;45364;-72
2022/09/13 03:58:50;;;;;;;;;2.67;2.67;;;;;;;;5057598;28;45322;-72
2022/09/13 04:01:19;;;;;;;;;4.00;3.67;;;;;;;;5055538;28;45665;-72
2022/09/13 04:03:44;;;;;;;;;1.67;1.67;;;;;;;;5051582;28;45534;-72
2022/09/13 04:06:09;;;;;;;;;3.00;3.00;;;;;;;;5047976;28;45756;-72
2022/09/13 04:08:35;;;;;;;;;4.00;4.00;;;;;;;;5059005;28;45425;-72
2022/09/13 04:11:00;;;;;;;;;5.00;3.67;;;;;;;;5052676;28;45614;-73
2022/09/13 04:13:25;;;;;;;;;3.00;3.00;;;;;;;;5052015;28;48170;-73
2022/09/13 04:15:51;;;;;;;;;4.00;4.00;;;;;;;;5057037;28;46144;-73
2022/09/13 04:18:16;;;;;;;;;3.50;2.50;;;;;;;;5051521;28;45413;-73
2022/09/13 04:20:41;;;;;;;;;3.00;3.00;;;;;;;;5059931;28;45251;-73
2022/09/13 04:23:07;;;;;;;;;1.67;1.67;;;;;;;;5068422;28;46135;-73
2022/09/13 04:25:32;;;;;;;;;5.33;4.00;;;;;;;;5061210;28;45220;-73
2022/09/13 04:28:00;;;;;;;;;4.67;2.67;;;;;;;;5053178;28;45369;-72
2022/09/13 04:30:26;;;;;;;;;5.67;3.67;;;;;;;;5052577;28;45486;-72
2022/09/13 04:32:51;;;;;;;;;4.67;4.33;;;;;;;;5051139;28;45360;-72
2022/09/13 04:35:18;;;;;;;;;4.67;4.67;;;;;;;;5052992;28;46406;-72
2022/09/13 04:37:44;;;;;;;;;3.67;3.67;;;;;;;;5050065;28;45344;-71
2022/09/13 04:40:10;;;;;;;;;4.33;4.33;;;;;;;;5070906;28;45468;-71
2022/09/13 04:42:35;;;;;;;;;6.00;4.67;;;;;;;;5052447;28;45576;-71
2022/09/13 04:45:00;;;;;;;;;6.00;4.33;;;;;;;;5058246;28;45330;-72
2022/09/13 04:47:25;;;;;;;;;4.00;4.00;;;;;;;;5054354;28;45415;-71
2022/09/13 04:49:51;;;;;;;;;4.00;4.00;;;;;;;;5061716;28;45308;-71
2022/09/13 04:52:16;;;;;;;;;3.00;3.00;;;;;;;;5052862;28;45768;-71
2022/09/13 04:54:41;;;;;;;;;3.00;3.00;;;;;;;;5049637;28;46280;-72
2022/09/13 04:57:07;;;;;;;;;6.00;5.00;;;;;;;;5054637;28;45685;-72
2022/09/13 04:59:32;;;;;;;;;9.33;5.67;;;;;;;;5058801;28;46555;-71
2022/09/13 05:01:58;;;;;;;;;6.00;4.67;;;;;;;;5054686;28;45738;-71
2022/09/13 05:04:23;;;;;;;;;5.33;5.33;;;;;;;;5057944;28;46192;-71
2022/09/13 05:06:48;;;;;;;;;10.00;4.33;;;;;;;;5049733;28;45220;-71
2022/09/13 05:09:14;;;;;;;;;6.67;6.00;;;;;;;;5084539;27;45264;-71
2022/09/13 05:11:39;;;;;;;;;6.33;6.33;;;;;;;;5046898;28;45463;-71
2022/09/13 05:14:05;;;;;;;;;7.67;6.33;;;;;;;;5062199;28;47090;-71
2022/09/13 05:16:31;;;;;;;;;7.67;6.33;;;;;;;;5048962;28;45355;-72
2022/09/13 05:18:57;;;;;;;;;9.33;6.67;;;;;;;;5054237;28;45453;-71
2022/09/13 05:21:23;;;;;;;;;8.67;7.33;;;;;;;;5053860;28;48282;-72
2022/09/13 05:23:49;;;;;;;;;10.00;7.33;;;;;;;;5061056;27;45415;-71
2022/09/13 05:26:14;;;;;;;;;6.00;6.00;;;;;;;;5054780;28;45307;-71
2022/09/13 05:28:39;;;;;;;;;6.00;5.33;;;;;;;;5050386;28;45318;-71
2022/09/13 05:31:06;;;;;;;;;7.00;7.00;;;;;;;;5055291;28;45275;-71
2022/09/13 05:33:33;;;;;;;;;8.33;8.33;;;;;;;;5053582;28;46439;-71
2022/09/13 05:35:58;;;;;;;;;12.67;8.33;;;;;;;;5058822;28;45213;-71
2022/09/13 05:38:24;;;;;;;;;8.00;7.33;;;;;;;;5050148;28;45402;-71
2022/09/13 05:40:55;;;;;;;;;7.00;7.00;;;;;;;;5043371;28;45249;-72
2022/09/13 05:43:20;;;;;;;;;6.67;6.67;;;;;;;;5048662;28;45391;-72
2022/09/13 05:45:45;;;;;;;;;8.33;8.33;;;;;;;;5050741;28;45312;-72
2022/09/13 05:48:10;;;;;;;;;7.00;5.67;;;;;;;;5066581;28;45382;-72
2022/09/13 05:50:36;;;;;;;;;8.00;6.33;;;;;;;;5059888;28;45594;-72
2022/09/13 05:53:02;;;;;;;;;7.00;7.00;;;;;;;;5057805;28;45331;-72
2022/09/13 05:55:27;;;;;;;;;8.00;8.00;;;;;;;;5056103;28;45592;-72
2022/09/13 05:57:52;;;;;;;;;4.00;4.00;;;;;;;;5055430;28;45590;-72
2022/09/13 06:00:17;;;;;;;;;5.00;5.00;;;;;;;;5088943;27;46138;-72
2022/09/13 06:02:42;;;;;;;;;6.00;6.00;;;;;;;;5057082;28;45996;-72
2022/09/13 06:05:09;;;;;;;;;7.67;7.33;;;;;;;;5056992;28;45284;-72
2022/09/13 06:07:34;;;;;;;;;6.67;5.67;;;;;;;;5057235;28;45414;-72
2022/09/13 06:09:59;;;;;;;;;5.67;5.67;;;;;;;;5045322;28;45217;-71
2022/09/13 06:12:25;;;;;;;;;7.00;5.67;;;;;;;;5048188;28;45984;-73
2022/09/13 06:14:50;;;;;;;;;7.67;7.00;;;;;;;;5059677;28;45242;-70
2022/09/13 06:17:15;;;;;;;;;8.33;7.67;;;;;;;;5052451;28;45625;-71
2022/09/13 06:19:40;;;;;;;;;10.33;7.00;;;;;;;;5050672;28;45545;-71
2022/09/13 06:22:06;;;;;;;;;9.67;8.67;;;;;;;;5053045;28;45680;-71
2022/09/13 06:24:31;;;;;;;;;10.00;8.67;;;;;;;;5051308;28;45479;-71
2022/09/13 06:26:56;;;;;;;;;7.00;7.00;;;;;;;;5048259;28;45281;-71
2022/09/13 06:29:21;;;;;;;;;8.00;7.33;;;;;;;;5057213;28;45304;-72
2022/09/13 06:31:47;;;;;;;;;10.67;8.00;;;;;;;;5069179;28;47977;-72
2022/09/13 06:34:14;;;;;;;;;7.00;6.33;;;;;;;;5050202;28;45333;-71
2022/09/13 06:36:39;;;;;;;;;9.00;7.00;;;;;;;;5054566;28;45516;-72
2022/09/13 06:39:05;;;;;;;;;7.00;5.00;;;;;;;;5052350;28;45273;-71
2022/09/13 06:41:31;;;;;;;;;14.00;8.67;;;;;;;;5043633;28;46291;-72
2022/09/13 06:43:57;;;;;;;;;11.00;9.00;;;;;;;;5047523;28;45466;-72
2022/09/13 06:46:22;;;;;;;;;7.67;7.00;;;;;;;;5043702;28;45268;-72
2022/09/13 06:48:48;;;;;;;;;8.00;6.33;;;;;;;;5057030;28;45288;-71
2022/09/13 06:51:17;;;;;;;;;12.67;9.00;;;;;;;;5056689;28;45509;-71
2022/09/13 06:53:43;;;;;;;;;10.00;8.00;;;;;;;;5053672;28;45893;-71
2022/09/13 06:56:13;;;;;;;;;11.67;8.33;;;;;;;;5055466;28;45472;-72
2022/09/13 06:58:40;;;;;;;;;9.67;8.00;;;;;;;;5051608;28;45423;-72
2022/09/13 07:01:11;;;;;;;;;12.67;8.00;;;;;;;;5057163;28;45365;-72
2022/09/13 07:03:46;;;;;;;;;12.67;8.67;;;;;;;;5050010;28;45414;-72
2022/09/13 07:06:22;;;;;;;;;8.00;7.67;;;;;;;;5057858;28;45335;-72
2022/09/13 07:08:48;;;;;;;;;7.00;7.00;;;;;;;;5053418;28;45369;-72
2022/09/13 07:11:14;;;;;;;;;9.00;7.33;;;;;;;;5041711;28;46547;-72
2022/09/13 07:13:40;;;;;;;;;5.00;5.00;;;;;;;;5057466;28;45292;-72
2022/09/13 07:16:07;;;;;;;;;6.33;4.67;;;;;;;;5053250;28;45201;-71
2022/09/13 07:18:32;;;;;;;;;6.00;4.00;;;;;;;;5048427;28;45460;-72
2022/09/13 07:21:00;;;;;;;;;8.33;6.00;;;;;;;;5049565;28;45320;-72
2022/09/13 07:23:25;;;;;;;;;8.67;5.67;;;;;;;;5055891;28;45928;-72
2022/09/13 07:25:54;;;;;;;;;4.67;4.67;;;;;;;;5054507;28;45391;-72
2022/09/13 07:28:20;;;;;;;;;5.33;5.00;;;;;;;;5062508;28;45522;-71
2022/09/13 07:30:45;;;;;;;;;8.67;7.00;;;;;;;;5054401;28;46289;-72
2022/09/13 07:33:11;;;;;;;;;7.00;5.67;;;;;;;;5052302;28;45352;-71
2022/09/13 07:35:36;;;;;;;;;4.67;4.67;;;;;;;;5066990;28;45722;-71
2022/09/13 07:38:02;;;;;;;;;6.33;4.67;;;;;;;;5054942;28;45612;-71
2022/09/13 07:40:27;;;;;;;;;8.00;7.00;;;;;;;;5057651;28;45440;-72
2022/09/13 07:42:52;;;;;;;;;6.33;5.00;;;;;;;;5049958;28;45385;-72
2022/09/13 07:45:17;;;;;;;;;6.00;6.00;;;;;;;;5046216;28;45181;-72
2022/09/13 07:47:43;;;;;;;;;7.67;7.00;;;;;;;;5042293;28;45366;-72
2022/09/13 07:50:08;;;;;;;;;7.67;7.67;;;;;;;;5044145;28;46272;-73
2022/09/13 07:52:36;;;;;;;;;5.00;4.33;;;;;;;;5051132;28;45331;-72
2022/09/13 07:55:02;;;;;;;;;8.67;6.33;;;;;;;;5058310;28;45355;-72
2022/09/13 07:57:27;;;;;;;;;6.00;4.33;;;;;;;;5052539;28;45413;-72
2022/09/13 07:59:52;;;;;;;;;5.33;4.00;;;;;;;;5044579;28;45466;-72
2022/09/13 08:02:17;;;;;;;;;7.67;4.67;;;;;;;;5055687;28;45374;-72
2022/09/13 08:04:42;;;;;;;;;9.67;7.00;;;;;;;;5057535;28;45423;-72
2022/09/13 08:07:08;;;;;;;;;4.00;4.00;;;;;;;;5041769;28;45460;-72
2022/09/13 08:09:33;;;;;;;;;7.33;5.67;;;;;;;;5057555;28;45356;-72
2022/09/13 08:11:58;;;;;;;;;5.67;5.67;;;;;;;;5054214;28;45561;-72
2022/09/13 08:14:23;;;;;;;;;7.67;7.33;;;;;;;;5052646;28;45948;-72
2022/09/13 08:16:49;;;;;;;;;4.00;4.00;;;;;;;;5050451;28;45264;-72
2022/09/13 08:19:16;;;;;;;;;9.00;6.67;;;;;;;;5060720;28;45574;-72
2022/09/13 08:21:42;;;;;;;;;8.33;6.33;;;;;;;;5058445;28;45679;-72
2022/09/13 08:24:12;;;;;;;;;5.33;5.00;;;;;;;;5060269;28;45394;-72
2022/09/13 08:26:37;;;;;;;;;7.33;7.00;;;;;;;;5058271;28;45434;-71
2022/09/13 08:29:04;;;;;;;;;7.33;7.33;;;;;;;;5064538;28;47321;-72
2022/09/13 08:31:30;;;;;;;;;7.00;7.00;;;;;;;;5089569;27;45313;-72
2022/09/13 08:33:55;;;;;;;;;8.00;8.00;;;;;;;;5054296;28;45310;-72
2022/09/13 08:36:23;;;;;;;;;10.33;8.00;;;;;;;;5053016;28;45488;-72
2022/09/13 08:38:49;;;;;;;;;6.33;6.33;;;;;;;;5070011;28;46939;-72
2022/09/13 08:41:17;;;;;;;;;7.00;7.00;;;;;;;;5058847;28;45422;-72
2022/09/13 08:44:06;;;;;;;;;9.33;7.00;;;;;;;;5062284;28;45232;-74
2022/09/13 08:46:37;;;;;;;;;7.67;7.33;;;;;;;;5041186;28;45518;-74
2022/09/13 08:49:05;;;;;;;;;11.00;9.67;;;;;;;;5054521;28;45275;-74
2022/09/13 08:51:34;;;;;;;;;10.67;9.67;;;;;;;;5050080;28;45417;-74
2022/09/13 08:53:59;;;;;;;;;10.00;9.00;;;;;;;;5059226;28;45441;-74
2022/09/13 08:56:37;;;;;;;;;8.33;7.33;;;;;;;;5055467;28;45528;-73
2022/09/13 08:59:08;;;;;;;;;10.67;7.00;;;;;;;;5054735;28;46467;-74
2022/09/13 09:01:46;;;;;;;;;10.67;7.67;;;;;;;;5056730;28;45393;-73
2022/09/13 09:04:28;;;;;;;;;3.67;3.33;;;;;;;;5051693;28;45454;-73
2022/09/13 09:07:02;;;;;;;;;5.67;5.67;;;;;;;;5049654;28;45478;-74
2022/09/13 09:09:31;;;;;;;;;5.25;5.25;;;;;;;;5043794;28;46120;-74
2022/09/13 09:12:01;;;;;;;;;5.75;5.75;;;;;;;;5049039;28;48099;-74
2022/09/13 09:14:31;;;;;;;;;7.25;7.25;;;;;;;;5054584;28;45276;-74
2022/09/13 09:17:00;;;;;;;;;8.25;6.00;;;;;;;;5048418;28;45493;-74
2022/09/13 09:19:33;;;;;;;;;6.00;6.00;;;;;;;;5054055;28;46215;-74
2022/09/13 09:22:00;;;;;;;;;5.00;4.00;;;;;;;;5050924;28;45443;-75
2022/09/13 09:24:25;;;;;;;;;5.00;5.00;;;;;;;;5048775;28;45386;-74
2022/09/13 09:26:58;;;;;;;;;7.25;5.00;;;;;;;;5052025;28;45220;-74
2022/09/13 09:29:27;;;;;;;;;5.00;5.00;;;;;;;;5055287;28;45444;-74
2022/09/13 09:32:15;;;;;;;;;6.50;4.00;;;;;;;;5054335;28;45700;-75
2022/09/13 09:34:51;;;;;;;;;6.25;5.00;;;;;;;;5062170;28;45442;-74
2022/09/13 09:37:21;;;;;;;;;5.00;5.00;;;;;;;;5052319;28;46881;-74
2022/09/13 09:39:47;;;;;;;;;6.00;6.00;;;;;;;;5054894;28;45217;-75
2022/09/13 09:42:18;;;;;;;;;4.75;3.25;;;;;;;;5064815;28;45366;-74
2022/09/13 09:44:49;;;;;;;;;6.50;5.25;;;;;;;;5050625;28;45213;-74
2022/09/13 09:47:19;;;;;;;;;7.00;5.00;;;;;;;;5053040;28;45260;-75
2022/09/13 09:52:52;;;;;;;;;5.75;5.75;;;;;;;;5048980;28;45353;-75
2022/09/13 09:55:26;;;;;;;;;7.25;7.25;;;;;;;;5045130;28;45309;-74
2022/09/13 09:57:57;;;;;;;;;9.25;9.25;;;;;;;;5060884;28;46356;-75
2022/09/13 10:00:25;;;;;;;;;6.00;6.00;;;;;;;;5072909;28;45545;-73
2022/09/13 10:02:53;;;;;;;;;4.50;4.50;;;;;;;;5053394;28;45397;-74
2022/09/13 10:05:19;;;;;;;;;4.00;3.25;;;;;;;;5057262;28;45347;-74
2022/09/13 10:07:51;;;;;;;;;4.50;3.25;;;;;;;;5055395;28;45478;-74
2022/09/13 10:10:22;;;;;;;;;4.50;3.00;;;;;;;;5058284;28;45592;-75
2022/09/13 10:12:49;;;;;;;;;3.75;3.75;;;;;;;;5052415;28;45370;-75
2022/09/13 10:15:16;;;;;;;;;7.75;4.25;;;;;;;;5052667;28;45351;-75
2022/09/13 10:17:42;;;;;;;;;4.00;4.00;;;;;;;;5045473;28;45249;-75
2022/09/13 10:20:13;;;;;;;;;3.00;3.00;;;;;;;;5055614;28;45286;-75
2022/09/13 10:22:39;;;;;;;;;5.75;4.50;;;;;;;;5045198;28;45443;-75
2022/09/13 10:25:14;;;;;;;;;6.00;5.25;;;;;;;;5063704;28;45463;-75
2022/09/13 10:27:44;;;;;;;;;5.50;5.50;;;;;;;;5046243;28;45350;-75
2022/09/13 10:30:32;;;;;;;;;13.75;10.00;;;;;;;;5050491;28;46792;-75
2022/09/13 10:32:58;;;;;;;;;13.00;12.00;;;;;;;;5046566;28;45470;-74
2022/09/13 10:35:24;;;;;;;;;12.25;11.75;;;;;;;;5057679;28;45187;-75
2022/09/13 10:37:50;;;;;;;;;15.67;15.67;;;;;;;;5052299;28;45430;-74
2022/09/13 10:40:27;;;;;;;;;32.00;28.00;;;;;;;;5056057;28;46422;-75
2022/09/13 10:42:57;;;;;;;;;18.00;18.00;;;;;;;;5054692;28;45397;-75
2022/09/13 10:45:23;;;;;;;;;19.00;16.67;;;;;;;;5059157;28;45347;-75
2022/09/13 10:47:50;;;;;;;;;20.00;18.33;;;;;;;;5049132;28;45601;-74
2022/09/13 10:50:18;;;;;;;;;14.00;11.00;;;;;;;;5048393;28;45315;-75
2022/09/13 10:52:48;;;;;;;;;12.50;9.75;;;;;;;;5053637;28;45571;-74
2022/09/13 10:55:17;;;;;;;;;10.50;9.00;;;;;;;;5057003;28;45308;-74
2022/09/13 10:57:42;;;;;;;;;7.50;7.50;;;;;;;;5047928;28;45375;-75
2022/09/13 11:00:10;;;;;;;;;11.75;9.25;;;;;;;;5057221;28;45205;-74
2022/09/13 11:02:48;;;;;;;;;8.75;7.75;;;;;;;;5047296;28;45374;-74
2022/09/13 11:05:20;;;;;;;;;4.25;4.25;;;;;;;;5047945;28;45322;-74
2022/09/13 11:08:04;;;;;;;;;4.00;4.00;;;;;;;;5049147;28;45433;-75
2022/09/13 11:10:38;;;;;;;;;7.00;7.00;;;;;;;;5049796;28;45354;-75
2022/09/13 11:13:32;;;;;;;;;8.00;7.00;;;;;;;;5052515;28;45511;-75
2022/09/13 11:16:24;;;;;;;;;9.00;8.25;;;;;;;;5044677;28;45475;-74
2022/09/13 11:18:52;;;;;;;;;6.00;6.00;;;;;;;;5031418;28;45443;-75
2022/09/13 11:21:29;;;;;;;;;3.25;3.25;;;;;;;;5056258;28;45231;-75
2022/09/13 11:24:13;;;;;;;;;6.00;6.00;;;;;;;;5047844;28;46345;-74
2022/09/13 11:26:44;;;;;;;;;5.25;5.25;;;;;;;;5052396;28;45515;-75
2022/09/13 11:29:10;;;;;;;;;7.75;5.00;;;;;;;;5052546;28;45236;-75
2022/09/13 11:31:47;;;;;;;;;4.00;4.00;;;;;;;;5055295;28;45377;-74
2022/09/13 11:34:32;;;;;;;;;5.40;4.40;;;;;;;;5054894;28;45282;-74
2022/09/13 11:37:12;;;;;;;;;6.50;6.00;;;;;;;;5042534;28;45213;-74
2022/09/13 11:39:40;;;;;;;;;4.50;4.50;;;;;;;;5064598;28;45445;-73
2022/09/13 11:42:15;;;;;;;;;5.00;5.00;;;;;;;;5060619;28;46399;-74
2022/09/13 11:44:49;;;;;;;;;5.80;4.00;;;;;;;;5052976;28;45494;-73
2022/09/13 11:47:14;;;;;;;;;9.75;8.00;;;;;;;;5050032;28;45319;-74
2022/09/13 11:49:57;;;;;;;;;4.50;4.50;;;;;;;;5057952;28;45272;-73
2022/09/13 11:52:25;;;;;;;;;4.25;4.25;;;;;;;;5055195;28;45442;-74
2022/09/13 11:54:51;;;;;;;;;4.80;4.80;;;;;;;;5060831;28;45437;-74
2022/09/13 11:57:20;;;;;;;;;3.25;3.00;;;;;;;;5054044;28;45461;-74
2022/09/13 11:59:52;;;;;;;;;6.75;4.25;;;;;;;;5067765;28;47294;-74
2022/09/13 12:02:26;;;;;;;;;5.25;4.00;;;;;;;;5056254;28;45317;-74
2022/09/13 12:04:55;;;;;;;;;3.75;3.75;;;;;;;;5066812;28;45252;-74
2022/09/13 12:07:28;;;;;;;;;4.00;4.00;;;;;;;;5057730;28;45284;-74
2022/09/13 12:09:59;;;;;;;;;3.75;3.75;;;;;;;;5043033;28;45520;-74
2022/09/13 12:12:28;;;;;;;;;5.50;4.25;;;;;;;;5044115;28;45305;-74
2022/09/13 12:14:58;;;;;;;;;4.40;4.40;;;;;;;;5046316;28;45533;-73
2022/09/13 12:17:30;;;;;;;;;5.00;3.25;;;;;;;;5047282;28;47945;-74
2022/09/13 12:19:59;;;;;;;;;3.25;2.50;;;;;;;;5056966;28;45773;-73
2022/09/13 12:22:26;;;;;;;;;4.25;4.25;;;;;;;;5047493;28;45320;-74
2022/09/13 12:24:54;;;;;;;;;3.60;3.60;;;;;;;;5058115;28;45352;-74
2022/09/13 12:27:22;;;;;;;;;6.00;5.25;;;;;;;;5053295;28;45569;-74
2022/09/13 12:29:53;;;;;;;;;5.25;5.25;;;;;;;;5059369;28;45306;-74
2022/09/13 12:32:18;;;;;;;;;3.80;3.80;;;;;;;;5045744;28;45511;-74
2022/09/13 12:34:50;;;;;;;;;4.75;3.75;;;;;;;;5057666;28;45309;-74
2022/09/13 12:37:21;;;;;;;;;4.25;4.25;;;;;;;;5068328;28;45394;-74
2022/09/13 12:40:08;;;;;;;;;5.25;3.75;;;;;;;;5054358;28;45392;-74
2022/09/13 12:42:33;;;;;;;;;5.00;3.60;;;;;;;;5048986;28;47219;-74
2022/09/13 12:44:58;;;;;;;;;4.25;2.75;;;;;;;;5048783;28;45243;-74
2022/09/13 12:47:30;;;;;;;;;5.00;5.00;;;;;;;;5049157;28;45394;-73
2022/09/13 12:50:04;;;;;;;;;4.00;4.00;;;;;;;;5050094;28;45510;-72
2022/09/13 12:52:39;;;;;;;;;3.80;3.80;;;;;;;;5052213;28;46511;-73
2022/09/13 12:55:31;;;;;;;;;3.60;2.80;;;;;;;;5050100;28;45371;-73
2022/09/13 12:58:15;;;;;;;;;6.20;4.40;;;;;;;;5051218;28;45434;-73
2022/09/13 13:00:47;;;;;;;;;3.20;3.20;;;;;;;;5055069;28;45260;-73
2022/09/13 13:03:15;;;;;;;;;5.00;5.00;;;;;;;;5055189;28;45311;-73
2022/09/13 13:05:44;;;;;;;;;5.80;4.20;;;;;;;;5057119;28;45294;-73
2022/09/13 13:08:18;;;;;;;;;5.00;5.00;;;;;;;;5051038;28;45320;-73
2022/09/13 13:10:43;;;;;;;;;5.00;5.00;;;;;;;;5047222;28;45357;-73
2022/09/13 13:13:14;;;;;;;;;3.75;3.75;;;;;;;;5050348;28;46363;-72
2022/09/13 13:15:42;;;;;;;;;3.20;3.20;;;;;;;;5046219;28;45448;-73
2022/09/13 13:18:21;;;;;;;;;5.80;4.00;;;;;;;;5050851;28;45268;-73
2022/09/13 13:20:47;;;;;;;;;4.00;3.00;;;;;;;;5053453;28;45355;-73
2022/09/13 13:23:18;;;;;;;;;4.00;4.00;;;;;;;;5048810;28;45415;-73
2022/09/13 13:25:59;;;;;;;;;5.40;4.40;;;;;;;;5054233;28;45380;-72
2022/09/13 13:28:50;;;;;;;;;4.75;4.75;;;;;;;;5053293;28;45243;-72
2022/09/13 13:31:30;;;;;;;;;7.00;4.80;;;;;;;;5030114;28;45467;-74
2022/09/13 13:33:58;;;;;;;;;6.00;4.20;;;;;;;;5059751;28;47703;-75
2022/09/13 13:36:44;;;;;;;;;2.80;2.60;;;;;;;;5046966;28;45424;-74
2022/09/13 13:39:24;;;;;;;;;1.20;0.80;;;;;;;;5050512;28;45490;-75
2022/09/13 13:41:57;;;;;;;;;3.60;3.60;;;;;;;;5047394;28;45267;-72
2022/09/13 13:44:22;;;;;;;;;3.80;3.80;;;;;;;;5056892;28;45311;-71
2022/09/13 13:46:52;;;;;;;;;4.50;4.00;;;;;;;;5050081;28;45433;-71
2022/09/13 13:49:29;;;;;;;;;4.60;3.00;;;;;;;;5087811;27;45313;-73
2022/09/13 13:52:14;;;;;;;;;6.25;4.25;;;;;;;;5050205;28;45454;-73
2022/09/13 13:57:19;;;;;;;;;4.00;4.00;;;;;;;;5052534;28;45452;-73
2022/09/13 13:59:46;;;;;;;;;5.40;3.60;;;;;;;;5049719;28;45430;-73
2022/09/13 14:02:12;;;;;;;;;5.00;5.00;;;;;;;;5052649;28;45315;-73
2022/09/13 14:04:50;;;;;;;;;7.25;5.75;;;;;;;;5057458;28;46806;-73
2022/09/13 14:07:41;;;;;;;;;5.00;4.00;;;;;;;;5046689;28;45437;-73
2022/09/13 14:10:25;;;;;;;;;3.75;3.75;;;;;;;;5035202;28;45402;-73
2022/09/13 14:13:09;;;;;;;;;3.25;3.25;;;;;;;;5048254;28;45208;-75
2022/09/13 14:15:50;;;;;;;;;4.60;4.60;;;;;;;;5052371;28;45284;-73
2022/09/13 14:18:22;;;;;;;;;4.60;3.60;;;;;;;;5061427;28;45450;-73
2022/09/13 14:21:04;;;;;;;;;4.00;3.00;;;;;;;;5069310;28;45233;-73
2022/09/13 14:23:30;;;;;;;;;6.25;4.25;;;;;;;;5051963;28;45324;-73
2022/09/13 14:25:57;;;;;;;;;5.00;4.25;;;;;;;;5056619;28;45521;-73
2022/09/13 14:28:22;;;;;;;;;3.80;3.80;;;;;;;;5051129;28;45338;-72
2022/09/13 14:30:51;;;;;;;;;4.00;4.00;;;;;;;;5047778;28;45209;-73
2022/09/13 14:33:23;;;;;;;;;3.80;3.80;;;;;;;;5046543;28;45362;-73
2022/09/13 14:35:56;;;;;;;;;5.20;4.40;;;;;;;;5046483;28;45313;-73
2022/09/13 14:38:22;;;;;;;;;6.80;5.40;;;;;;;;5048570;28;45170;-72
2022/09/13 14:40:48;;;;;;;;;3.40;3.20;;;;;;;;5049680;28;45240;-73
2022/09/13 14:43:21;;;;;;;;;3.75;3.75;;;;;;;;5052955;28;45363;-73
2022/09/13 14:45:48;;;;;;;;;4.60;3.20;;;;;;;;5051925;28;48308;-73
2022/09/13 14:48:16;;;;;;;;;5.80;3.20;;;;;;;;5050151;28;45426;-73
2022/09/13 14:50:47;;;;;;;;;4.20;3.00;;;;;;;;5055507;28;45688;-73
2022/09/13 14:53:15;;;;;;;;;4.40;3.80;;;;;;;;5056730;28;45475;-73
2022/09/13 14:55:48;;;;;;;;;3.20;3.20;;;;;;;;5049690;28;45361;-73
2022/09/13 14:58:18;;;;;;;;;4.00;4.00;;;;;;;;5048230;28;45441;-73
2022/09/13 15:01:10;;;;;;;;;4.80;4.80;;;;;;;;5052281;28;45296;-73
2022/09/13 15:03:35;;;;;;;;;3.60;3.60;;;;;;;;5047204;28;45261;-73